Terminal Aerodrome Forecast
Issued by NWS

Home | Current Version | Previous Version | Graphics & Text | Print | Product List | Glossary On
Versions: 1 2 3 4 5 6 7 8 9 10 11 12 13 14 15 16 17 18 19 20 21
000
FTUS43 KLSX 301700
TAFUIN
TAF
KUIN 301723Z 3018/3118 35012KT P6SM VCSH OVC012
     FM302100 36014G22KT P6SM OVC015
     FM310200 01012KT 6SM BR OVC009
     FM311600 01012KT P6SM SCT009 OVC012=

USA.gov is the U.S. government's official web portal to all federal, state and local government web resources and services.